»·PEaware :: G-BHOR KSBP-KBFL

G-BHOR :: KSBP-KBFL

FLIGHT INFORMATION

Flight Status: Arrived
Operator: Privately registered:
United Kingdom
More flights under this callsign
Pilot: Jack B. (19764)
Aircraft: CESSNA 172 SKYHAWK
(C172)
More flights by this aircraft type
Origin: KSBP San Luis Co Regl
United States
Destination: KBFL Meadows
United States
More flights between these airports :: More routes between these airports
Route: VFR FLIGHT TRAINING
File this flight plan on PilotEdge
Remarks:
Altitude:
(Current/Filed)
12,000ft
Speed:
(Current/Filed)
100kts
Departed: 07-Aug-18 02:08 PM
Arrived: 07-Aug-18 03:08 PM
Distance/Time
Traveled:
79nm/1:00
Distance/Time
To Go:
Arrived

Flight Plot

Page will automatically refresh every two minutes.

Flight plan parsing failed; only flown route is shown


Map Options




Map Legend


Flown Route
Filed Route
Departure Airport
Arrival Airport
Navaid (VOR, NDB)
Fix

Horizontal Profiles

Position Reports

Time Latitude Longitude Heading Altitude Ground
Speed
07-Aug-18 13:54 35.234443 -120.632856 126 213ft 0kts
07-Aug-18 13:55 35.234443 -120.632856 126 213ft 0kts
07-Aug-18 13:56 35.234443 -120.632856 126 213ft 0kts
07-Aug-18 13:57 35.234443 -120.632856 126 213ft 0kts
07-Aug-18 13:58 35.234428 -120.632831 125 213ft 1kts
07-Aug-18 13:59 35.234122 -120.633500 128 211ft 11kts
07-Aug-18 14:00 35.233249 -120.631915 281 212ft 0kts
07-Aug-18 14:01 35.233261 -120.631937 300 212ft 0kts
07-Aug-18 14:02 35.233261 -120.631937 301 212ft 0kts
07-Aug-18 14:03 35.233261 -120.631937 301 212ft 0kts
07-Aug-18 14:04 35.233261 -120.631937 301 212ft 0kts
07-Aug-18 14:05 35.233222 -120.632401 214 211ft 0kts
07-Aug-18 14:06 35.233222 -120.632401 214 211ft 0kts
07-Aug-18 14:07 35.233222 -120.632401 214 211ft 0kts
07-Aug-18 14:08 35.233222 -120.632401 214 211ft 0kts
07-Aug-18 14:09 35.235832 -120.638572 305 353ft 62kts
07-Aug-18 14:10 35.239318 -120.657029 208 1200ft 86kts
07-Aug-18 14:11 35.213233 -120.649699 165 1955ft 99kts
07-Aug-18 14:12 35.187948 -120.633835 146 2681ft 96kts
07-Aug-18 14:13 35.167316 -120.612530 114 3416ft 98kts
07-Aug-18 14:14 35.175852 -120.585448 47 4114ft 91kts
07-Aug-18 14:15 35.189929 -120.558453 48 4730ft 96kts
07-Aug-18 14:16 35.204321 -120.530819 48 5338ft 96kts
07-Aug-18 14:17 35.219162 -120.507094 39 5902ft 92kts
07-Aug-18 14:18 35.237287 -120.485906 28 6508ft 88kts
07-Aug-18 14:19 35.257102 -120.470346 15 7102ft 81kts
07-Aug-18 14:20 35.277227 -120.461556 0 7685ft 70kts
07-Aug-18 14:21 35.302645 -120.459802 351 7761ft 105kts
07-Aug-18 14:22 35.331479 -120.460552 349 7756ft 102kts
07-Aug-18 14:23 35.359885 -120.462288 347 7756ft 101kts
07-Aug-18 14:24 35.387817 -120.465065 346 7768ft 100kts
07-Aug-18 14:25 35.413497 -120.468927 342 8155ft 80kts
07-Aug-18 14:26 35.433845 -120.475346 329 8659ft 73kts
07-Aug-18 14:27 35.453019 -120.479043 24 9015ft 90kts
07-Aug-18 14:28 35.453198 -120.452272 156 9333ft 91kts
07-Aug-18 14:29 35.432027 -120.440379 117 9631ft 103kts
07-Aug-18 14:30 35.429786 -120.406167 80 10031ft 103kts
07-Aug-18 14:31 35.433842 -120.371179 88 10321ft 109kts
07-Aug-18 14:32 35.436754 -120.335172 76 10607ft 110kts
07-Aug-18 14:33 35.442333 -120.299169 84 10928ft 107kts
07-Aug-18 14:34 35.444637 -120.264056 93 11259ft 103kts
07-Aug-18 14:35 35.443458 -120.229850 96 11578ft 101kts
07-Aug-18 14:36 35.441330 -120.196493 108 11903ft 96kts
07-Aug-18 14:37 35.438519 -120.162901 89 12022ft 113kts
07-Aug-18 14:38 35.441833 -120.122222 89 12020ft 124kts
07-Aug-18 14:39 35.446008 -120.079596 87 12019ft 127kts
07-Aug-18 14:40 35.450536 -120.035872 87 12021ft 129kts
07-Aug-18 14:41 35.455078 -119.992202 87 12021ft 126kts
07-Aug-18 14:42 35.459563 -119.950593 87 12020ft 122kts
07-Aug-18 14:43 35.464050 -119.908999 87 12016ft 123kts
07-Aug-18 14:44 35.468207 -119.872218 100 11728ft 67kts
07-Aug-18 14:45 35.471436 -119.840773 97 11015ft 95kts
07-Aug-18 14:46 35.468120 -119.807093 103 10829ft 118kts
07-Aug-18 14:47 35.467855 -119.771942 93 10567ft 98kts
07-Aug-18 14:48 35.470759 -119.736605 86 10835ft 106kts
07-Aug-18 14:49 35.474424 -119.701705 86 11127ft 107kts
07-Aug-18 14:50 35.478466 -119.665609 86 11429ft 106kts
07-Aug-18 14:51 35.482274 -119.632533 94 11298ft 92kts
07-Aug-18 14:52 35.477747 -119.599608 117 10313ft 119kts
07-Aug-18 14:53 35.456657 -119.560585 135 8808ft 163kts
07-Aug-18 14:54 35.436053 -119.511303 105 6206ft 166kts
07-Aug-18 14:55 35.418774 -119.463618 122 4891ft 140kts
07-Aug-18 14:56 35.405286 -119.419851 91 4840ft 140kts
07-Aug-18 14:57 35.408073 -119.372701 76 4842ft 139kts
07-Aug-18 14:58 35.413346 -119.337368 85 4841ft 136kts
07-Aug-18 14:59 35.416324 -119.290518 84 4840ft 138kts
07-Aug-18 15:00 35.419174 -119.246073 84 4840ft 139kts
07-Aug-18 15:01 35.422151 -119.201411 84 4813ft 99kts
07-Aug-18 15:02 35.429191 -119.176582 62 4777ft 85kts
07-Aug-18 15:03 35.436305 -119.134401 79 3189ft 171kts
07-Aug-18 15:04 35.431267 -119.086773 129 1768ft 119kts
07-Aug-18 15:05 35.409835 -119.062158 148 1359ft 96kts
07-Aug-18 15:06 35.395078 -119.041985 65 1271ft 81kts
07-Aug-18 15:07 35.413248 -119.034369 331 1004ft 73kts
07-Aug-18 15:08 35.428031 -119.049154 311 597ft 60kts
07-Aug-18 15:09 35.436148 -119.057990 42 490ft 13kts
07-Aug-18 15:10 35.434935 -119.054162 6 495ft 16kts
07-Aug-18 15:11 35.435229 -119.054139 149 496ft 0kts
07-Aug-18 15:12 35.435229 -119.054139 149 496ft 0kts
07-Aug-18 15:13 35.435229 -119.054139 149 496ft 0kts
07-Aug-18 15:14 35.435229 -119.054139 149 496ft 0kts
07-Aug-18 15:15 35.435229 -119.054139 149 496ft 0kts
07-Aug-18 15:16 35.435229 -119.054139 149 496ft 0kts
07-Aug-18 15:17 35.435229 -119.054139 149 496ft 0kts
07-Aug-18 15:18 35.435229 -119.054139 149 496ft 0kts
07-Aug-18 15:19 35.435229 -119.054139 149 496ft 0kts
07-Aug-18 15:20 35.435229 -119.054139 149 496ft 0kts
07-Aug-18 15:21 35.435229 -119.054139 149 496ft 0kts
07-Aug-18 15:22 35.435229 -119.054139 149 496ft 0kts
07-Aug-18 15:23 35.435229 -119.054139 149 496ft 0kts

Navigation Log

Ident Type
Flight plan parsing failed, navigation log unavailable